Time;durP1;ratioP1;P1;durP2;ratioP2;P2;SDS_P1;SDS_P2;PMS_P1;PMS_P2;Temp;Humidity;BMP_temperature;BMP_pressure;BME280_temperature;BME280_humidity;BME280_pressure;Samples;Min_cycle;Max_cycle;Signal;HPM_P1;HPM_P2
2021/12/11 00:02:23;;;;;;;18.73;13.60;;;;;;;;;;5039480;28;20238;-72
2021/12/11 00:04:56;;;;;;;19.80;14.10;;;;;;;;;;5040705;28;20849;-72
2021/12/11 00:07:23;;;;;;;24.03;13.07;;;;;;;;;;5041834;28;20213;-72
2021/12/11 00:09:57;;;;;;;21.00;15.13;;;;;;;;;;5039767;28;20227;-72
2021/12/11 00:12:27;;;;;;;19.07;13.83;;;;;;;;;;5038578;28;21038;-73
2021/12/11 00:14:56;;;;;;;17.33;13.73;;;;;;;;;;5041642;28;20210;-73
2021/12/11 00:17:28;;;;;;;16.33;12.43;;;;;;;;;;5040463;28;20230;-70
2021/12/11 00:19:55;;;;;;;16.83;12.93;;;;;;;;;;5040637;28;20892;-70
2021/12/11 00:22:24;;;;;;;22.50;14.80;;;;;;;;;;5039633;28;20874;-70
2021/12/11 00:24:52;;;;;;;17.13;13.07;;;;;;;;;;5040975;28;20233;-70
2021/12/11 00:27:24;;;;;;;17.97;13.23;;;;;;;;;;5039873;28;20211;-71
2021/12/11 00:29:51;;;;;;;17.97;13.00;;;;;;;;;;5039394;28;20209;-71
2021/12/11 00:32:24;;;;;;;20.27;13.57;;;;;;;;;;5040741;28;20292;-70
2021/12/11 00:34:52;;;;;;;19.27;13.27;;;;;;;;;;5040574;28;20585;-70
2021/12/11 00:37:22;;;;;;;22.63;14.97;;;;;;;;;;5039289;28;20336;-70
2021/12/11 00:39:52;;;;;;;20.13;14.13;;;;;;;;;;5038777;28;20940;-70
2021/12/11 00:42:24;;;;;;;19.90;14.20;;;;;;;;;;5041293;28;20232;-72
2021/12/11 00:44:52;;;;;;;20.47;14.30;;;;;;;;;;5040066;28;20206;-71
2021/12/11 00:47:22;;;;;;;21.73;15.50;;;;;;;;;;5039800;28;20640;-71
2021/12/11 00:49:52;;;;;;;24.73;16.50;;;;;;;;;;5040514;28;20231;-71
2021/12/11 00:52:28;;;;;;;23.07;15.33;;;;;;;;;;5040600;28;20209;-71
2021/12/11 00:54:54;;;;;;;18.07;13.70;;;;;;;;;;5039268;28;20237;-71
2021/12/11 00:57:22;;;;;;;24.17;14.90;;;;;;;;;;5039373;28;20210;-71
2021/12/11 00:59:59;;;;;;;23.23;14.83;;;;;;;;;;5041144;28;20235;-71
2021/12/11 01:02:26;;;;;;;23.43;16.13;;;;;;;;;;5039856;28;20295;-71
2021/12/11 01:04:53;;;;;;;23.63;16.37;;;;;;;;;;5039049;28;20291;-71
2021/12/11 01:07:24;;;;;;;24.83;15.27;;;;;;;;;;5039888;28;20259;-71
2021/12/11 01:09:55;;;;;;;25.83;15.93;;;;;;;;;;5040435;28;20304;-71
2021/12/11 01:12:29;;;;;;;26.23;17.83;;;;;;;;;;5038217;28;20287;-71
2021/12/11 01:14:59;;;;;;;24.80;15.10;;;;;;;;;;5038291;28;20344;-71
2021/12/11 01:17:36;;;;;;;24.97;15.33;;;;;;;;;;5040759;28;20225;-71
2021/12/11 01:20:08;;;;;;;23.33;15.80;;;;;;;;;;5039178;28;20206;-71
2021/12/11 01:22:36;;;;;;;23.43;16.60;;;;;;;;;;5038806;28;20304;-71
2021/12/11 01:25:08;;;;;;;22.23;15.63;;;;;;;;;;5038169;28;20230;-72
2021/12/11 01:27:37;;;;;;;21.77;15.37;;;;;;;;;;5040744;28;20206;-71
2021/12/11 01:30:07;;;;;;;23.33;16.67;;;;;;;;;;5038523;28;21230;-71
2021/12/11 01:32:35;;;;;;;26.60;18.30;;;;;;;;;;5037825;28;20233;-71
2021/12/11 01:35:04;;;;;;;29.30;16.37;;;;;;;;;;5039933;28;20730;-71
2021/12/11 01:37:30;;;;;;;27.63;17.33;;;;;;;;;;5039627;28;20215;-71
2021/12/11 01:39:57;;;;;;;22.93;16.07;;;;;;;;;;5038499;28;20241;-71
2021/12/11 01:42:26;;;;;;;24.47;16.83;;;;;;;;;;5038885;28;20232;-71
2021/12/11 01:44:56;;;;;;;28.33;16.83;;;;;;;;;;5039800;28;20573;-73
2021/12/11 01:47:30;;;;;;;24.63;16.83;;;;;;;;;;5039128;28;20753;-73
2021/12/11 01:50:01;;;;;;;20.97;15.13;;;;;;;;;;5038135;28;20911;-71
2021/12/11 01:52:37;;;;;;;23.03;15.73;;;;;;;;;;5043872;28;20281;-72
2021/12/11 01:55:07;;;;;;;28.70;18.80;;;;;;;;;;5043730;28;20299;-71
2021/12/11 01:57:34;;;;;;;22.90;16.23;;;;;;;;;;5042858;28;20213;-71
2021/12/11 02:00:13;;;;;;;23.67;16.53;;;;;;;;;;5043448;28;20214;-71
2021/12/11 02:02:44;;;;;;;22.77;15.60;;;;;;;;;;5044088;28;20226;-72
2021/12/11 02:05:13;;;;;;;21.13;15.23;;;;;;;;;;5042288;28;20317;-71
2021/12/11 02:07:43;;;;;;;18.17;14.60;;;;;;;;;;5042404;28;20257;-71
2021/12/11 02:10:17;;;;;;;21.60;14.77;;;;;;;;;;5042439;28;20300;-71
2021/12/11 02:12:44;;;;;;;20.63;15.37;;;;;;;;;;5043625;28;21057;-71
2021/12/11 02:15:15;;;;;;;22.57;15.53;;;;;;;;;;5042566;28;20268;-71
2021/12/11 02:17:45;;;;;;;17.30;13.57;;;;;;;;;;5042544;28;20257;-71
2021/12/11 02:20:14;;;;;;;23.30;15.03;;;;;;;;;;5043327;28;20219;-71
2021/12/11 02:22:46;;;;;;;20.23;13.70;;;;;;;;;;5042301;28;20230;-71
2021/12/11 02:25:16;;;;;;;19.70;14.73;;;;;;;;;;5041743;28;20685;-71
2021/12/11 02:27:47;;;;;;;22.50;16.10;;;;;;;;;;5042558;28;21063;-71
2021/12/11 02:30:20;;;;;;;21.73;15.17;;;;;;;;;;5042683;28;20284;-71
2021/12/11 02:32:54;;;;;;;17.63;13.47;;;;;;;;;;5041551;28;20236;-71
2021/12/11 02:35:28;;;;;;;18.33;14.17;;;;;;;;;;5040953;28;20226;-71
2021/12/11 02:38:03;;;;;;;22.67;15.33;;;;;;;;;;5043494;28;20208;-71
2021/12/11 02:40:35;;;;;;;26.67;17.70;;;;;;;;;;5042145;28;20665;-72
2021/12/11 02:43:07;;;;;;;23.13;15.20;;;;;;;;;;5041317;28;20385;-71
2021/12/11 02:45:38;;;;;;;26.93;17.00;;;;;;;;;;5042080;28;20215;-71
2021/12/11 02:48:08;;;;;;;23.07;17.93;;;;;;;;;;5043242;28;20210;-71
2021/12/11 02:50:37;;;;;;;28.07;17.93;;;;;;;;;;5042330;28;20698;-71
2021/12/11 02:53:10;;;;;;;27.70;19.23;;;;;;;;;;5041665;28;20256;-71
2021/12/11 02:55:42;;;;;;;25.73;18.50;;;;;;;;;;5042562;28;20226;-72
2021/12/11 02:58:14;;;;;;;23.87;17.27;;;;;;;;;;5042464;28;20209;-71
2021/12/11 03:00:45;;;;;;;25.53;18.03;;;;;;;;;;5041051;28;20229;-71
2021/12/11 03:03:13;;;;;;;23.77;16.17;;;;;;;;;;5041578;28;20609;-71
2021/12/11 03:05:51;;;;;;;23.13;16.87;;;;;;;;;;5042328;28;20271;-71
2021/12/11 03:08:21;;;;;;;25.17;15.97;;;;;;;;;;5040882;28;20231;-71
2021/12/11 03:10:52;;;;;;;29.00;18.17;;;;;;;;;;5040096;28;20838;-72
2021/12/11 03:13:19;;;;;;;26.50;19.10;;;;;;;;;;5042425;28;20252;-71
2021/12/11 03:15:45;;;;;;;23.97;16.67;;;;;;;;;;5042193;28;20235;-71
2021/12/11 03:18:13;;;;;;;23.27;16.20;;;;;;;;;;5040331;28;20243;-71
2021/12/11 03:20:41;;;;;;;20.07;15.50;;;;;;;;;;5040586;28;20232;-71
2021/12/11 03:23:08;;;;;;;21.03;14.87;;;;;;;;;;5042393;28;20276;-70
2021/12/11 03:25:36;;;;;;;20.73;15.50;;;;;;;;;;5039986;28;20226;-71
2021/12/11 03:28:05;;;;;;;21.40;15.83;;;;;;;;;;5040642;28;20282;-71
2021/12/11 03:30:35;;;;;;;22.17;15.70;;;;;;;;;;5042554;28;20272;-71
2021/12/11 03:33:07;;;;;;;21.03;15.00;;;;;;;;;;5042120;28;20258;-71
2021/12/11 03:35:33;;;;;;;21.93;15.97;;;;;;;;;;5040938;28;20264;-71
2021/12/11 03:38:00;;;;;;;22.50;14.90;;;;;;;;;;5041893;28;20751;-71
2021/12/11 03:40:27;;;;;;;19.73;14.83;;;;;;;;;;5041536;28;20250;-71
2021/12/11 03:42:57;;;;;;;22.70;14.70;;;;;;;;;;5040681;28;20230;-71
2021/12/11 03:45:26;;;;;;;23.00;14.83;;;;;;;;;;5040806;28;20211;-71
2021/12/11 03:47:57;;;;;;;21.30;14.53;;;;;;;;;;5042881;28;21140;-71
2021/12/11 03:50:24;;;;;;;22.47;14.67;;;;;;;;;;5040987;28;20276;-71
2021/12/11 03:52:52;;;;;;;20.70;14.80;;;;;;;;;;5039872;28;20219;-71
2021/12/11 03:55:23;;;;;;;20.80;15.17;;;;;;;;;;5041393;28;20230;-71
2021/12/11 03:57:55;;;;;;;23.13;15.07;;;;;;;;;;5041645;28;20749;-71
2021/12/11 04:00:25;;;;;;;25.73;16.37;;;;;;;;;;5040280;28;20285;-71
2021/12/11 04:02:56;;;;;;;20.47;15.13;;;;;;;;;;5041407;28;20231;-71
2021/12/11 04:05:23;;;;;;;23.43;16.13;;;;;;;;;;5042315;28;20221;-71
2021/12/11 04:07:51;;;;;;;23.57;15.63;;;;;;;;;;5040821;28;20205;-71
2021/12/11 04:10:19;;;;;;;21.17;15.50;;;;;;;;;;5038824;28;21217;-73
2021/12/11 04:12:48;;;;;;;26.63;17.23;;;;;;;;;;5040933;28;20208;-71
2021/12/11 04:15:16;;;;;;;19.50;15.87;;;;;;;;;;5040468;28;20237;-71
2021/12/11 04:17:44;;;;;;;20.33;15.63;;;;;;;;;;5039942;28;20226;-71
2021/12/11 04:20:14;;;;;;;26.33;16.57;;;;;;;;;;5040342;28;20580;-71
2021/12/11 04:22:42;;;;;;;21.50;15.60;;;;;;;;;;5042177;28;20759;-71
2021/12/11 04:25:10;;;;;;;21.13;16.10;;;;;;;;;;5039187;28;20234;-71
2021/12/11 04:27:37;;;;;;;24.93;16.83;;;;;;;;;;5039235;28;20269;-71
2021/12/11 04:30:05;;;;;;;23.13;17.77;;;;;;;;;;5041666;28;20280;-71
2021/12/11 04:32:33;;;;;;;27.10;19.90;;;;;;;;;;5040388;28;20231;-71
2021/12/11 04:35:02;;;;;;;24.03;19.10;;;;;;;;;;5040391;28;20236;-71
2021/12/11 04:37:30;;;;;;;27.60;19.23;;;;;;;;;;5040584;28;20294;-71
2021/12/11 04:40:02;;;;;;;28.93;19.27;;;;;;;;;;5041231;28;20645;-71
2021/12/11 04:42:42;;;;;;;31.93;19.27;;;;;;;;;;5037881;28;20230;-71
2021/12/11 04:45:11;;;;;;;24.70;18.23;;;;;;;;;;5039342;28;20222;-71
2021/12/11 04:47:44;;;;;;;26.80;19.33;;;;;;;;;;5040928;28;20234;-71
2021/12/11 04:50:20;;;;;;;30.37;20.60;;;;;;;;;;5040886;28;20592;-71
2021/12/11 04:52:54;;;;;;;22.83;17.80;;;;;;;;;;5038345;28;20292;-71
2021/12/11 04:55:36;;;;;;;31.33;20.10;;;;;;;;;;5039347;28;20324;-71
2021/12/11 04:58:24;;;;;;;28.47;20.73;;;;;;;;;;5041218;28;20309;-71
2021/12/11 05:01:03;;;;;;;26.27;19.00;;;;;;;;;;5040500;28;20759;-71
2021/12/11 05:04:03;;;;;;;23.40;18.00;;;;;;;;;;5038922;28;20228;-71
2021/12/11 05:06:44;;;;;;;24.97;17.87;;;;;;;;;;5037359;28;20227;-71
2021/12/11 05:09:24;;;;;;;28.43;19.03;;;;;;;;;;5040013;28;20676;-71
2021/12/11 05:12:04;;;;;;;24.93;18.83;;;;;;;;;;5040102;28;20313;-71
2021/12/11 05:14:31;;;;;;;32.47;22.03;;;;;;;;;;5038764;28;20574;-71
2021/12/11 05:16:57;;;;;;;29.30;21.33;;;;;;;;;;5039100;28;20226;-71
2021/12/11 05:19:24;;;;;;;28.07;19.53;;;;;;;;;;5039888;28;20215;-71
2021/12/11 05:21:52;;;;;;;30.37;20.37;;;;;;;;;;5040492;28;20214;-71
2021/12/11 05:24:20;;;;;;;26.33;19.13;;;;;;;;;;5037613;28;20218;-71
2021/12/11 05:26:47;;;;;;;32.07;20.37;;;;;;;;;;5038666;28;20214;-71
2021/12/11 05:29:14;;;;;;;30.17;20.43;;;;;;;;;;5040376;28;20253;-73
2021/12/11 05:31:40;;;;;;;29.00;24.38;;;;;;;;;;5037424;28;20436;-75
2021/12/11 05:34:07;;;;;;;33.47;24.03;;;;;;;;;;5038571;28;20234;-75
2021/12/11 05:36:35;;;;;;;24.57;18.60;;;;;;;;;;5040603;28;20219;-76
2021/12/11 05:39:08;;;;;;;31.53;21.30;;;;;;;;;;5039829;28;20245;-75
2021/12/11 05:41:34;;;;;;;25.77;18.73;;;;;;;;;;5038875;28;20245;-76
2021/12/11 05:44:01;;;;;;;27.50;18.67;;;;;;;;;;5040066;28;20235;-76
2021/12/11 05:46:27;;;;;;;21.20;16.97;;;;;;;;;;5039115;28;20233;-76
2021/12/11 05:48:54;;;;;;;30.60;19.30;;;;;;;;;;5039333;28;20237;-75
2021/12/11 05:51:23;;;;;;;29.20;19.00;;;;;;;;;;5039231;28;20215;-75
2021/12/11 05:53:54;;;;;;;27.73;19.53;;;;;;;;;;5041081;28;20302;-75
2021/12/11 05:56:24;;;;;;;26.17;18.17;;;;;;;;;;5039483;28;20223;-76
2021/12/11 05:58:57;;;;;;;24.23;18.37;;;;;;;;;;5037792;28;20764;-75
2021/12/11 06:01:33;;;;;;;26.33;18.73;;;;;;;;;;5038962;28;20326;-75
2021/12/11 06:04:05;;;;;;;23.70;17.77;;;;;;;;;;5040886;28;20724;-76
2021/12/11 06:06:32;;;;;;;23.90;17.67;;;;;;;;;;5038476;28;20213;-75
2021/12/11 06:08:59;;;;;;;25.50;17.73;;;;;;;;;;5038996;28;20288;-75
2021/12/11 06:11:26;;;;;;;30.23;18.73;;;;;;;;;;5038589;28;20290;-75
2021/12/11 06:13:53;;;;;;;25.87;17.17;;;;;;;;;;5039127;28;20974;-76
2021/12/11 06:16:20;;;;;;;24.80;18.83;;;;;;;;;;5037854;28;20701;-76
2021/12/11 06:18:46;;;;;;;30.23;19.70;;;;;;;;;;5040087;28;20219;-76
2021/12/11 06:21:14;;;;;;;29.23;20.47;;;;;;;;;;5039513;28;20213;-76
2021/12/11 06:23:41;;;;;;;31.87;19.73;;;;;;;;;;5038498;28;20236;-76
2021/12/11 06:26:09;;;;;;;28.80;19.33;;;;;;;;;;5039158;28;20290;-76
2021/12/11 06:28:38;;;;;;;24.00;17.67;;;;;;;;;;5039459;28;20216;-76
2021/12/11 06:31:05;;;;;;;26.70;19.43;;;;;;;;;;5038521;28;20234;-76
2021/12/11 06:33:34;;;;;;;26.07;19.70;;;;;;;;;;5038068;28;20214;-75
2021/12/11 06:36:04;;;;;;;29.40;19.37;;;;;;;;;;5040197;28;20217;-76
2021/12/11 06:38:34;;;;;;;29.67;20.13;;;;;;;;;;5041613;28;20587;-75
2021/12/11 06:41:01;;;;;;;29.60;19.47;;;;;;;;;;5042121;28;20234;-75
2021/12/11 06:43:28;;;;;;;29.93;19.93;;;;;;;;;;5043216;28;20637;-75
2021/12/11 06:45:56;;;;;;;30.10;19.57;;;;;;;;;;5043353;28;20283;-77
2021/12/11 06:48:23;;;;;;;34.17;22.37;;;;;;;;;;5041745;28;20295;-76
2021/12/11 06:50:50;;;;;;;34.43;22.80;;;;;;;;;;5042076;28;20667;-76
2021/12/11 06:53:23;;;;;;;34.87;23.17;;;;;;;;;;5043089;28;20253;-76
2021/12/11 06:55:50;;;;;;;32.13;22.63;;;;;;;;;;5042575;28;20230;-77
2021/12/11 06:58:16;;;;;;;35.43;25.40;;;;;;;;;;5039888;28;20678;-76
2021/12/11 07:00:43;;;;;;;34.73;23.10;;;;;;;;;;5041863;28;20226;-77
2021/12/11 07:03:11;;;;;;;37.27;23.93;;;;;;;;;;5042033;28;20230;-76
2021/12/11 07:05:38;;;;;;;33.00;22.53;;;;;;;;;;5039899;28;20272;-76
2021/12/11 07:08:06;;;;;;;35.70;24.30;;;;;;;;;;5041379;28;20654;-77
2021/12/11 07:10:34;;;;;;;37.37;23.57;;;;;;;;;;5039189;28;20241;-76
2021/12/11 07:13:01;;;;;;;31.07;22.00;;;;;;;;;;5040194;28;20687;-77
2021/12/11 07:15:28;;;;;;;29.33;21.07;;;;;;;;;;5039984;28;20234;-76
2021/12/11 07:17:55;;;;;;;24.83;18.50;;;;;;;;;;5038013;28;20681;-77
2021/12/11 07:20:23;;;;;;;35.60;20.53;;;;;;;;;;5040603;28;20237;-77
2021/12/11 07:22:50;;;;;;;26.73;19.73;;;;;;;;;;5039269;28;21171;-77
2021/12/11 07:25:21;;;;;;;32.80;21.43;;;;;;;;;;5037569;28;20238;-77
2021/12/11 07:27:48;;;;;;;35.87;23.60;;;;;;;;;;5040957;28;20689;-77
2021/12/11 07:30:15;;;;;;;38.30;23.30;;;;;;;;;;5037832;28;20215;-77
2021/12/11 07:32:42;;;;;;;36.53;24.07;;;;;;;;;;5039271;28;20288;-76
2021/12/11 07:35:10;;;;;;;39.57;24.67;;;;;;;;;;5038291;28;20611;-77
2021/12/11 07:37:39;;;;;;;42.20;26.57;;;;;;;;;;5037824;28;20215;-77
2021/12/11 07:40:07;;;;;;;34.73;24.87;;;;;;;;;;5039876;28;20348;-77
2021/12/11 07:42:34;;;;;;;45.30;28.03;;;;;;;;;;5037905;28;20214;-76
2021/12/11 07:45:00;;;;;;;34.90;24.90;;;;;;;;;;5039333;28;20220;-76
2021/12/11 07:47:26;;;;;;;36.17;24.47;;;;;;;;;;5039276;28;20282;-77
2021/12/11 07:49:53;;;;;;;37.43;25.20;;;;;;;;;;5038011;28;20313;-76
2021/12/11 07:52:20;;;;;;;38.17;24.77;;;;;;;;;;5039951;28;20337;-78
2021/12/11 07:54:47;;;;;;;36.30;23.87;;;;;;;;;;5037596;28;20228;-76
2021/12/11 07:57:14;;;;;;;34.53;22.53;;;;;;;;;;5038113;28;20219;-76
2021/12/11 07:59:41;;;;;;;32.50;23.07;;;;;;;;;;5039729;28;20212;-80
2021/12/11 08:02:07;;;;;;;43.90;28.43;;;;;;;;;;5036636;28;20292;-76
2021/12/11 08:04:34;;;;;;;42.00;26.40;;;;;;;;;;5040206;28;20267;-77
2021/12/11 08:07:01;;;;;;;36.70;25.47;;;;;;;;;;5038774;28;20840;-78
2021/12/11 08:09:28;;;;;;;37.87;24.63;;;;;;;;;;5037870;28;20213;-78
2021/12/11 08:11:57;;;;;;;33.70;22.73;;;;;;;;;;5038558;28;20573;-78
2021/12/11 08:14:24;;;;;;;44.03;26.87;;;;;;;;;;5037413;28;20248;-78
2021/12/11 08:16:54;;;;;;;38.97;25.27;;;;;;;;;;5038997;28;20734;-77
2021/12/11 08:19:24;;;;;;;43.10;25.70;;;;;;;;;;5038825;28;20688;-77
2021/12/11 08:21:54;;;;;;;40.57;24.20;;;;;;;;;;5037760;28;20609;-78
2021/12/11 08:24:21;;;;;;;54.77;28.80;;;;;;;;;;5037223;28;20276;-78
2021/12/11 08:26:50;;;;;;;40.70;24.43;;;;;;;;;;5036621;28;20211;-78
2021/12/11 08:29:19;;;;;;;33.67;23.70;;;;;;;;;;5039047;28;20571;-76
2021/12/11 08:31:48;;;;;;;38.87;24.60;;;;;;;;;;5036776;28;20232;-76
2021/12/11 08:34:16;;;;;;;40.93;26.23;;;;;;;;;;5037787;28;20202;-78
2021/12/11 08:36:43;;;;;;;37.83;25.37;;;;;;;;;;5036210;28;20199;-77
2021/12/11 08:39:12;;;;;;;38.37;23.93;;;;;;;;;;5034757;28;20240;-76
2021/12/11 08:41:41;;;;;;;34.93;23.93;;;;;;;;;;5036821;28;20229;-77
2021/12/11 08:44:12;;;;;;;34.53;24.27;;;;;;;;;;5035160;28;20770;-76
2021/12/11 08:46:45;;;;;;;35.30;24.87;;;;;;;;;;5038308;28;20306;-77
2021/12/11 08:49:15;;;;;;;38.63;25.80;;;;;;;;;;5036262;28;20227;-77
2021/12/11 08:51:45;;;;;;;34.87;25.50;;;;;;;;;;5039714;28;20324;-77
2021/12/11 08:54:12;;;;;;;38.73;25.60;;;;;;;;;;5037095;28;20199;-76
2021/12/11 08:56:41;;;;;;;39.47;26.37;;;;;;;;;;5038215;28;20544;-76
2021/12/11 08:59:12;;;;;;;36.67;25.90;;;;;;;;;;5036780;28;20623;-77
2021/12/11 09:01:45;;;;;;;44.63;27.77;;;;;;;;;;5036702;28;20231;-76
2021/12/11 09:04:15;;;;;;;33.83;23.67;;;;;;;;;;5037356;28;20259;-77
2021/12/11 09:06:45;;;;;;;37.40;24.37;;;;;;;;;;5036212;28;20434;-76
2021/12/11 09:09:16;;;;;;;33.77;23.43;;;;;;;;;;5038648;28;20943;-76
2021/12/11 09:11:49;;;;;;;40.87;26.37;;;;;;;;;;5036007;28;20229;-76
2021/12/11 09:14:19;;;;;;;45.07;27.60;;;;;;;;;;5037260;28;20270;-76
2021/12/11 09:16:50;;;;;;;31.77;23.47;;;;;;;;;;5039700;28;20594;-76
2021/12/11 09:19:19;;;;;;;33.33;22.87;;;;;;;;;;5038692;28;20272;-76
2021/12/11 09:21:52;;;;;;;35.07;24.30;;;;;;;;;;5038140;28;20290;-77
2021/12/11 09:24:24;;;;;;;30.13;22.30;;;;;;;;;;5035213;28;20723;-76
2021/12/11 09:26:57;;;;;;;30.57;22.27;;;;;;;;;;5038306;28;20564;-76
2021/12/11 09:29:28;;;;;;;39.53;27.83;;;;;;;;;;5036133;28;20824;-76
2021/12/11 09:32:04;;;;;;;33.90;24.90;;;;;;;;;;5039024;28;20759;-76
2021/12/11 09:34:35;;;;;;;38.90;26.00;;;;;;;;;;5036067;28;20203;-76
2021/12/11 09:37:03;;;;;;;40.07;27.53;;;;;;;;;;5035930;28;20207;-76
2021/12/11 09:39:36;;;;;;;44.97;29.77;;;;;;;;;;5036278;28;20284;-76
2021/12/11 09:42:02;;;;;;;38.47;27.90;;;;;;;;;;5035476;28;20583;-76
2021/12/11 09:44:33;;;;;;;42.10;27.33;;;;;;;;;;5037132;28;20234;-76
2021/12/11 09:47:03;;;;;;;36.33;26.80;;;;;;;;;;5034054;28;20242;-76
2021/12/11 09:49:32;;;;;;;40.53;27.33;;;;;;;;;;5035854;28;21024;-76
2021/12/11 09:52:14;;;;;;;41.37;26.97;;;;;;;;;;5035826;28;20348;-76
2021/12/11 09:54:41;;;;;;;35.90;25.63;;;;;;;;;;5036168;28;20689;-76
2021/12/11 09:57:13;;;;;;;32.13;24.03;;;;;;;;;;5036470;28;20740;-76
2021/12/11 09:59:45;;;;;;;35.43;25.00;;;;;;;;;;5036404;28;20217;-76
2021/12/11 10:02:16;;;;;;;41.20;25.50;;;;;;;;;;5031552;28;20245;-76
2021/12/11 10:04:51;;;;;;;42.53;28.33;;;;;;;;;;5031167;28;20226;-77
2021/12/11 10:07:27;;;;;;;37.33;25.93;;;;;;;;;;5041738;28;20210;-77
2021/12/11 10:09:58;;;;;;;37.80;26.13;;;;;;;;;;5036569;28;20368;-77
2021/12/11 10:12:27;;;;;;;39.37;28.10;;;;;;;;;;5037673;28;20653;-78
2021/12/11 10:15:01;;;;;;;36.70;24.77;;;;;;;;;;5039709;28;20210;-76
2021/12/11 10:17:36;;;;;;;33.23;25.43;;;;;;;;;;5038498;28;21014;-77
2021/12/11 10:20:08;;;;;;;32.97;24.07;;;;;;;;;;5042316;28;20202;-79
2021/12/11 10:22:39;;;;;;;35.00;22.50;;;;;;;;;;5040172;28;20632;-77
2021/12/11 10:25:11;;;;;;;31.97;23.97;;;;;;;;;;5040135;28;20230;-77
2021/12/11 10:27:37;;;;;;;28.00;21.33;;;;;;;;;;5040763;28;20207;-76
2021/12/11 10:30:10;;;;;;;32.30;22.03;;;;;;;;;;5040792;28;20613;-77
2021/12/11 10:32:36;;;;;;;34.23;24.43;;;;;;;;;;5040653;28;20223;-76
2021/12/11 10:35:08;;;;;;;33.20;22.63;;;;;;;;;;5040334;28;20203;-77
2021/12/11 10:37:38;;;;;;;29.73;22.70;;;;;;;;;;5041679;28;20707;-75
2021/12/11 10:40:10;;;;;;;33.60;21.43;;;;;;;;;;5039522;28;20497;-75
2021/12/11 10:42:37;;;;;;;29.93;21.37;;;;;;;;;;5041897;28;20214;-77
2021/12/11 10:45:08;;;;;;;26.30;20.87;;;;;;;;;;5041136;28;20300;-78
2021/12/11 10:47:39;;;;;;;28.97;22.17;;;;;;;;;;5042554;28;20280;-79
2021/12/11 10:50:13;;;;;;;30.23;22.37;;;;;;;;;;5042192;28;20223;-78
2021/12/11 10:52:40;;;;;;;28.87;21.23;;;;;;;;;;5042407;28;20229;-79
2021/12/11 10:55:11;;;;;;;31.83;24.57;;;;;;;;;;5043447;28;20230;-79
2021/12/11 10:57:38;;;;;;;28.80;22.20;;;;;;;;;;5041932;28;20211;-79
2021/12/11 11:00:15;;;;;;;25.90;20.87;;;;;;;;;;5045126;28;20210;-79
2021/12/11 11:02:43;;;;;;;28.50;22.43;;;;;;;;;;5042214;28;20218;-79
2021/12/11 11:05:14;;;;;;;27.77;21.70;;;;;;;;;;5045449;28;20615;-79
2021/12/11 11:07:42;;;;;;;29.17;22.13;;;;;;;;;;5044883;28;20299;-79
2021/12/11 11:10:12;;;;;;;25.37;19.73;;;;;;;;;;5043188;28;20223;-79
2021/12/11 11:12:39;;;;;;;24.47;19.57;;;;;;;;;;5044737;28;20217;-77
2021/12/11 11:15:07;;;;;;;26.30;20.50;;;;;;;;;;5042282;28;20214;-77
2021/12/11 11:17:35;;;;;;;33.20;21.40;;;;;;;;;;5041526;28;20704;-78
2021/12/11 11:20:08;;;;;;;31.00;21.53;;;;;;;;;;5045971;28;20906;-79
2021/12/11 11:22:38;;;;;;;25.77;19.70;;;;;;;;;;5042103;28;20215;-79
2021/12/11 11:25:08;;;;;;;25.77;20.83;;;;;;;;;;5042561;28;20234;-79
2021/12/11 11:27:36;;;;;;;25.97;20.73;;;;;;;;;;5043114;28;20646;-77
2021/12/11 11:30:04;;;;;;;25.87;18.47;;;;;;;;;;5040856;28;20316;-78
2021/12/11 11:32:32;;;;;;;23.87;18.67;;;;;;;;;;5040046;28;20300;-78
2021/12/11 11:35:03;;;;;;;23.47;18.47;;;;;;;;;;5041698;28;20210;-78
2021/12/11 11:37:31;;;;;;;24.27;18.27;;;;;;;;;;5039538;28;20210;-77
2021/12/11 11:39:57;;;;;;;26.63;17.67;;;;;;;;;;5042180;28;20227;-77
2021/12/11 11:42:24;;;;;;;24.27;19.47;;;;;;;;;;5041624;28;20211;-77
2021/12/11 11:44:51;;;;;;;25.20;19.70;;;;;;;;;;5040134;28;20237;-77
2021/12/11 11:47:19;;;;;;;32.60;20.63;;;;;;;;;;5042291;28;20649;-78
2021/12/11 11:49:46;;;;;;;29.20;20.13;;;;;;;;;;5041453;28;20269;-78
2021/12/11 11:52:17;;;;;;;28.20;21.77;;;;;;;;;;5041351;28;20219;-78
2021/12/11 11:54:46;;;;;;;25.93;19.93;;;;;;;;;;5043750;28;20232;-78
2021/12/11 11:57:17;;;;;;;26.27;21.00;;;;;;;;;;5042570;28;20848;-79
2021/12/11 11:59:44;;;;;;;24.97;19.20;;;;;;;;;;5043193;28;20211;-80
2021/12/11 12:02:17;;;;;;;22.70;19.30;;;;;;;;;;5046490;28;20880;-80
2021/12/11 12:04:45;;;;;;;21.47;18.30;;;;;;;;;;5041325;28;20223;-77
2021/12/11 12:07:12;;;;;;;27.83;20.50;;;;;;;;;;5044106;28;20210;-79
2021/12/11 12:09:43;;;;;;;27.60;19.80;;;;;;;;;;5044492;28;20223;-79
2021/12/11 12:12:12;;;;;;;27.70;21.13;;;;;;;;;;5042842;28;20652;-80
2021/12/11 12:14:39;;;;;;;28.83;20.30;;;;;;;;;;5046224;28;20246;-79
2021/12/11 12:17:10;;;;;;;26.87;19.33;;;;;;;;;;5043977;28;20625;-79
2021/12/11 12:19:37;;;;;;;24.23;18.90;;;;;;;;;;5042414;28;20212;-80
2021/12/11 12:22:06;;;;;;;27.83;18.77;;;;;;;;;;5044375;28;20281;-79
2021/12/11 12:24:35;;;;;;;25.60;17.47;;;;;;;;;;5041901;28;20230;-79
2021/12/11 12:27:07;;;;;;;26.13;18.17;;;;;;;;;;5045395;28;20215;-79
2021/12/11 12:29:37;;;;;;;24.23;18.40;;;;;;;;;;5041624;28;20312;-77
2021/12/11 12:32:06;;;;;;;26.33;18.70;;;;;;;;;;5040401;28;20227;-77
2021/12/11 12:34:33;;;;;;;23.50;17.50;;;;;;;;;;5040113;28;20227;-77
2021/12/11 12:37:01;;;;;;;26.47;19.03;;;;;;;;;;5040875;28;20210;-78
2021/12/11 12:39:36;;;;;;;29.30;19.23;;;;;;;;;;5039455;28;20329;-77
2021/12/11 12:42:21;;;;;;;31.27;20.37;;;;;;;;;;5041836;28;20252;-77
2021/12/11 12:44:51;;;;;;;31.87;19.47;;;;;;;;;;5040777;28;20592;-78
2021/12/11 12:47:20;;;;;;;29.60;20.07;;;;;;;;;;5039707;28;20581;-77
2021/12/11 12:49:50;;;;;;;26.47;19.83;;;;;;;;;;5040692;28;20242;-77
2021/12/11 12:52:19;;;;;;;21.90;18.67;;;;;;;;;;5036809;28;20302;-77
2021/12/11 12:54:46;;;;;;;26.93;19.90;;;;;;;;;;5037109;28;20238;-77
2021/12/11 12:57:18;;;;;;;26.07;20.67;;;;;;;;;;5041339;28;20261;-77
2021/12/11 12:59:51;;;;;;;23.43;19.50;;;;;;;;;;5039967;28;20210;-76
2021/12/11 13:02:21;;;;;;;23.90;19.03;;;;;;;;;;5039497;28;20304;-77
2021/12/11 13:04:52;;;;;;;27.33;20.50;;;;;;;;;;5042269;28;20277;-78
2021/12/11 13:07:19;;;;;;;26.60;21.20;;;;;;;;;;5042321;28;21081;-79
2021/12/11 13:09:51;;;;;;;26.87;20.93;;;;;;;;;;5039282;28;20642;-76
2021/12/11 13:12:22;;;;;;;27.67;21.73;;;;;;;;;;5040286;28;20199;-76
2021/12/11 13:14:50;;;;;;;29.90;21.97;;;;;;;;;;5038843;28;20223;-78
2021/12/11 13:17:20;;;;;;;29.47;21.77;;;;;;;;;;5042730;28;20230;-77
2021/12/11 13:19:51;;;;;;;30.63;22.57;;;;;;;;;;5038619;28;20206;-76
2021/12/11 13:22:20;;;;;;;28.97;22.90;;;;;;;;;;5040461;28;20219;-79
2021/12/11 13:24:52;;;;;;;29.30;22.13;;;;;;;;;;5040961;28;20712;-77
2021/12/11 13:27:23;;;;;;;32.17;21.17;;;;;;;;;;5039016;28;20211;-77
2021/12/11 13:29:54;;;;;;;29.47;21.30;;;;;;;;;;5039613;28;20218;-77
2021/12/11 13:32:23;;;;;;;32.93;24.20;;;;;;;;;;5040992;28;20223;-76
2021/12/11 13:34:53;;;;;;;31.50;22.50;;;;;;;;;;5039932;28;20207;-79
2021/12/11 13:37:22;;;;;;;33.93;24.13;;;;;;;;;;5043803;28;20265;-80
2021/12/11 13:39:50;;;;;;;31.60;24.50;;;;;;;;;;5042710;28;20611;-77
2021/12/11 13:42:21;;;;;;;37.97;28.20;;;;;;;;;;5037756;28;20252;-77
2021/12/11 13:44:51;;;;;;;33.97;24.93;;;;;;;;;;5040386;28;20222;-77
2021/12/11 13:47:22;;;;;;;33.60;24.83;;;;;;;;;;5046164;28;20229;-77
2021/12/11 13:49:49;;;;;;;34.60;24.23;;;;;;;;;;5044968;28;20299;-77
2021/12/11 13:52:17;;;;;;;32.03;24.37;;;;;;;;;;5047099;28;20795;-77
2021/12/11 13:54:44;;;;;;;35.70;25.20;;;;;;;;;;5044830;28;20620;-77
2021/12/11 13:57:14;;;;;;;55.97;26.27;;;;;;;;;;5044651;28;20202;-77
2021/12/11 13:59:43;;;;;;;76.67;27.80;;;;;;;;;;5046984;28;20225;-76
2021/12/11 14:02:10;;;;;;;57.77;30.63;;;;;;;;;;5045583;28;20242;-77
2021/12/11 14:04:38;;;;;;;32.70;24.43;;;;;;;;;;5045103;28;20268;-78
2021/12/11 14:07:11;;;;;;;50.63;25.60;;;;;;;;;;5046492;28;20864;-77
2021/12/11 14:09:40;;;;;;;38.67;24.90;;;;;;;;;;5045515;28;20703;-77
2021/12/11 14:12:09;;;;;;;50.43;27.37;;;;;;;;;;5046622;28;20218;-78
2021/12/11 14:14:36;;;;;;;42.23;26.90;;;;;;;;;;5046942;28;21008;-77
2021/12/11 14:17:05;;;;;;;62.60;31.23;;;;;;;;;;5045093;28;20855;-78
2021/12/11 14:19:31;;;;;;;52.53;28.50;;;;;;;;;;5047680;28;20280;-77
2021/12/11 14:22:01;;;;;;;57.97;29.30;;;;;;;;;;5045775;28;20283;-77
2021/12/11 14:24:29;;;;;;;66.80;32.03;;;;;;;;;;5044579;28;20261;-77
2021/12/11 14:26:58;;;;;;;57.67;28.63;;;;;;;;;;5047621;28;20349;-77
2021/12/11 14:29:25;;;;;;;61.63;28.23;;;;;;;;;;5045622;28;20212;-77
2021/12/11 14:31:52;;;;;;;116.97;36.67;;;;;;;;;;5046142;28;20314;-78